Reno Tahoe International Airport
KRNO : now visible

Airfield :











YOU CAN JOIN US ON...

 
LOGIN :

Register | Disclaimer

   EN    FR    IT 

 









Legend :    VFR   Marginal VFR   IFR   Intensive IFR   Very Intensive IFR
Visi :
Ceiling :
>= 8 km
>= 3000ft
5 to 8 km
1000 to 3000 ft
1500m to 5 km
500 to 1000 ft
800 to 1500m
200 to 500 ft
< 800m
< 200 ft
Symbols :   Thunderstorms  Fog  Heavy snow  Heavy precipitations  Wind > 20 kt







- Airport Elevation : 4415 ft
- IATA code : RNO


KRNO - Reno Tahoe International

CURRENT METAR :
  • 261355Z 17018G22KT 10SM FEW040 BKN048 OVC075 09/03 A2962 RMK AO2 RAB17E43 SLP998 SH DSNT S THRU W MTN TOPS OBSCD DSNT SW THRU NW P0000 T00890028

EXPIRED METARs :
  • 261255Z 28008KT 10SM OVC055 08/04 A2959 RMK AO2 RAE06 SLP989 P0000 T00830039
  • 261155Z 01004KT 10SM -RA OVC050 09/04 A2958 RMK AO2 SLP986 P0000 60003 70004 T00890039 10133 20089 58012

TAF KRNO
Valid from the 26 at 14:00 until the 27 at 12:00 UTC


261430Z 2614/2712 18012G20KT P6SM -RA SCT030 BKN050
FM261800 34009KT P6SM VCSH SCT030 BKN060
FM262200 32012G20KT 5SM RA SCT015 BKN030
FM270600 30008KT P6SM VCSH SCT030 BKN060
KZOA FIR / North America



MET'MAP, your aeronautical weather chart ! - Copyright ORBIFLY December 2007 - Disclaimer

ORBIFLY MET'MAP TEAM :

Programming & Development : Alexandra Zaïnal
Concept & Development : Baudouin d'Aumeries
Co-Development & Prog : Marc-Olivier Méhu
Technical & hardware support : Manuel Goepfert

Contact : metmap@orbifly.com




SOURCES & CREDITS :

   NOAA       Earth
Advisory